Time;durP1;ratioP1;P1;durP2;ratioP2;P2;SDS_P1;SDS_P2;PMS_P1;PMS_P2;Temp;Humidity;BMP_temperature;BMP_pressure;BME280_temperature;BME280_humidity;BME280_pressure;Samples;Min_cycle;Max_cycle;Signal;HPM_P1;HPM_P2
2023/03/05 00:01:11;;;;;;;8.45;3.38;;;3.70;99.90;;;;;;4999077;28;20046;-74
2023/03/05 00:03:36;;;;;;;12.07;2.85;;;3.70;99.90;;;;;;4982805;28;20052;-73
2023/03/05 00:06:03;;;;;;;10.57;3.33;;;3.70;99.90;;;;;;4985635;28;20054;-73
2023/03/05 00:08:29;;;;;;;5.10;3.60;;;3.70;99.90;;;;;;4970019;28;20049;-73
2023/03/05 00:10:59;;;;;;;12.15;3.40;;;3.70;99.90;;;;;;4984213;28;21532;-74
2023/03/05 00:13:25;;;;;;;11.25;3.92;;;3.70;99.90;;;;;;4989437;28;20060;-73
2023/03/05 00:15:51;;;;;;;7.80;3.70;;;3.70;99.90;;;;;;4986033;28;20046;-73
2023/03/05 00:18:16;;;;;;;8.73;3.08;;;3.70;99.90;;;;;;4990892;28;20049;-73
2023/03/05 00:20:42;;;;;;;8.88;3.63;;;3.70;99.90;;;;;;5005014;28;20046;-73
2023/03/05 00:23:09;;;;;;;13.57;3.50;;;3.70;99.90;;;;;;4991049;28;20046;-73
2023/03/05 00:25:35;;;;;;;7.78;2.67;;;3.70;99.90;;;;;;4983373;28;20837;-73
2023/03/05 00:28:01;;;;;;;4.35;3.05;;;3.70;99.90;;;;;;4988275;28;20054;-73
2023/03/05 00:30:27;;;;;;;9.98;3.55;;;3.70;99.90;;;;;;4985422;28;20052;-73
2023/03/05 00:32:53;;;;;;;12.63;3.25;;;3.70;99.90;;;;;;5007519;28;20046;-73
2023/03/05 00:35:18;;;;;;;10.43;2.80;;;3.60;99.90;;;;;;4985918;28;20044;-73
2023/03/05 00:37:44;;;;;;;6.90;2.80;;;3.60;99.90;;;;;;4985590;28;20457;-73
2023/03/05 00:40:11;;;;;;;10.10;2.85;;;3.60;99.90;;;;;;4985915;28;20046;-73
2023/03/05 00:42:37;;;;;;;9.93;2.45;;;3.60;99.90;;;;;;4970224;28;20042;-74
2023/03/05 00:45:05;;;;;;;13.25;3.85;;;3.60;99.90;;;;;;4983720;28;20054;-73
2023/03/05 00:47:31;;;;;;;8.80;3.03;;;3.60;99.90;;;;;;4992639;28;20085;-73
2023/03/05 00:49:56;;;;;;;8.10;2.30;;;3.50;99.90;;;;;;4989055;28;20388;-73
2023/03/05 00:52:23;;;;;;;7.53;3.95;;;3.60;99.90;;;;;;4991832;28;20450;-73
2023/03/05 00:54:48;;;;;;;6.85;2.88;;;3.60;99.90;;;;;;5005916;28;20049;-73
2023/03/05 00:57:14;;;;;;;11.35;3.50;;;3.60;99.90;;;;;;4992903;28;20046;-73
2023/03/05 00:59:40;;;;;;;10.60;3.00;;;3.60;99.90;;;;;;4991599;28;20060;-73
2023/03/05 01:02:06;;;;;;;14.95;3.63;;;3.60;99.90;;;;;;5007509;28;20046;-73
2023/03/05 01:04:32;;;;;;;7.90;2.78;;;3.50;99.90;;;;;;5003443;28;20070;-73
2023/03/05 01:06:57;;;;;;;13.30;4.45;;;3.60;99.90;;;;;;5005781;28;20048;-73
2023/03/05 01:09:26;;;;;;;11.43;3.17;;;3.50;99.90;;;;;;4971382;28;20045;-73
2023/03/05 01:11:53;;;;;;;;;;;3.50;99.90;;;;;;4984928;28;20047;-73
2023/03/05 01:14:19;;;;;;;7.50;3.83;;;3.50;99.90;;;;;;4987170;28;20019;-73
2023/03/05 01:16:45;;;;;;;15.95;3.55;;;3.50;99.90;;;;;;4987904;28;20081;-74
2023/03/05 01:19:12;;;;;;;11.32;2.72;;;3.50;99.90;;;;;;4988942;28;20050;-73
2023/03/05 01:21:38;;;;;;;7.07;3.13;;;3.50;99.90;;;;;;4984269;28;20054;-73
2023/03/05 01:24:04;;;;;;;11.43;3.65;;;3.50;99.90;;;;;;4988770;28;20092;-73
2023/03/05 01:26:30;;;;;;;6.60;3.00;;;3.50;99.90;;;;;;5008760;28;20096;-73
2023/03/05 01:28:56;;;;;;;9.65;2.88;;;3.50;99.90;;;;;;4989035;28;20143;-73
2023/03/05 01:31:21;;;;;;;7.32;2.92;;;3.50;99.90;;;;;;4986753;28;20484;-73
2023/03/05 01:33:47;;;;;;;11.65;2.80;;;3.50;99.90;;;;;;4986924;28;20538;-73
2023/03/05 01:36:15;;;;;;;7.97;3.17;;;3.50;99.90;;;;;;4990553;28;20053;-73
2023/03/05 01:38:43;;;;;;;5.03;2.03;;;3.50;99.90;;;;;;4992776;28;20129;-73
2023/03/05 01:41:10;;;;;;;5.05;2.72;;;3.50;99.90;;;;;;4986513;28;20042;-73
2023/03/05 01:43:36;;;;;;;8.52;3.17;;;3.50;99.90;;;;;;4987035;28;20050;-74
2023/03/05 01:46:23;;;;;;;4.07;2.17;;;3.50;99.90;;;;;;4990632;28;20100;-73
2023/03/05 01:48:59;;;;;;;2.95;2.08;;;3.50;99.90;;;;;;4985355;28;20493;-73
2023/03/05 01:51:29;;;;;;;10.57;2.97;;;3.50;99.90;;;;;;4984384;28;20045;-73
2023/03/05 01:53:57;;;;;;;5.47;1.85;;;3.50;99.90;;;;;;4971366;28;20073;-74
2023/03/05 01:56:23;;;;;;;7.15;2.42;;;3.40;99.90;;;;;;4990485;28;20111;-73
2023/03/05 01:58:50;;;;;;;5.10;2.45;;;3.40;99.90;;;;;;4987631;28;20133;-73
2023/03/05 02:01:17;;;;;;;6.55;2.85;;;3.40;99.90;;;;;;4981399;28;20047;-74
2023/03/05 02:03:44;;;;;;;6.38;2.97;;;3.40;99.90;;;;;;4988573;28;20442;-73
2023/03/05 02:06:09;;;;;;;6.50;2.65;;;3.40;99.90;;;;;;4987341;28;20050;-74
2023/03/05 02:08:35;;;;;;;6.78;2.90;;;3.40;99.90;;;;;;4990161;28;20057;-74
2023/03/05 02:11:02;;;;;;;10.20;3.33;;;3.30;99.90;;;;;;4984598;28;20053;-74
2023/03/05 02:13:34;;;;;;;7.72;2.40;;;3.30;99.90;;;;;;4967790;28;20041;-74
2023/03/05 02:16:01;;;;;;;11.27;4.03;;;3.30;99.90;;;;;;4988470;28;20082;-74
2023/03/05 02:18:27;;;;;;;9.25;3.30;;;3.20;99.90;;;;;;4988293;28;20038;-74
2023/03/05 02:20:56;;;;;;;8.30;3.15;;;3.20;99.90;;;;;;4988961;28;20038;-74
2023/03/05 02:23:23;;;;;;;;;;;3.20;99.90;;;;;;4980537;28;20153;-74
2023/03/05 02:25:49;;;;;;;6.95;2.42;;;3.10;99.90;;;;;;4983598;28;20036;-74
2023/03/05 02:28:38;;;;;;;7.47;3.05;;;3.10;99.90;;;;;;4984785;28;20041;-74
2023/03/05 02:31:15;;;;;;;3.75;2.10;;;3.10;99.90;;;;;;4988433;28;20049;-74
2023/03/05 02:33:41;;;;;;;6.40;2.05;;;3.10;99.90;;;;;;4989928;28;20046;-74
2023/03/05 02:36:07;;;;;;;14.23;2.92;;;3.00;99.90;;;;;;4989743;28;20056;-74
2023/03/05 02:38:33;;;;;;;6.75;2.97;;;3.00;99.90;;;;;;4989623;28;20030;-74
2023/03/05 02:40:59;;;;;;;6.65;2.72;;;2.90;99.90;;;;;;4986870;28;20197;-74
2023/03/05 02:43:25;;;;;;;5.30;2.60;;;2.90;99.90;;;;;;4987430;28;20771;-74
2023/03/05 02:45:50;;;;;;;7.30;2.40;;;2.90;99.90;;;;;;4986421;28;20050;-74
2023/03/05 02:48:18;;;;;;;6.50;2.65;;;2.80;99.90;;;;;;4986043;28;20041;-74
2023/03/05 02:50:45;;;;;;;6.18;2.72;;;2.80;99.90;;;;;;5005339;28;20402;-74
2023/03/05 02:53:10;;;;;;;6.40;2.90;;;2.80;99.90;;;;;;4993899;28;20458;-74
2023/03/05 02:55:37;;;;;;;5.32;2.35;;;2.80;99.90;;;;;;4987515;28;20121;-74
2023/03/05 02:58:03;;;;;;;7.38;2.33;;;2.70;99.90;;;;;;4990596;28;20057;-74
2023/03/05 03:00:29;;;;;;;11.88;2.97;;;2.70;99.90;;;;;;4991735;28;20037;-74
2023/03/05 03:02:55;;;;;;;5.25;2.50;;;2.70;99.90;;;;;;4989405;28;20054;-74
2023/03/05 03:05:21;;;;;;;9.32;2.95;;;2.60;99.90;;;;;;4986455;28;20037;-74
2023/03/05 03:07:46;;;;;;;11.02;3.13;;;2.60;99.90;;;;;;4985591;28;20232;-73
2023/03/05 03:10:12;;;;;;;12.05;3.88;;;2.60;99.90;;;;;;4987552;28;20053;-73
2023/03/05 03:12:43;;;;;;;5.85;3.20;;;2.60;99.90;;;;;;4980278;28;20566;-73
2023/03/05 03:15:10;;;;;;;6.85;3.13;;;2.60;99.90;;;;;;5006867;28;20048;-73
2023/03/05 03:17:37;;;;;;;6.73;3.00;;;2.50;99.90;;;;;;4987171;28;20042;-73
2023/03/05 03:20:12;;;;;;;6.63;2.92;;;2.50;99.90;;;;;;4988465;28;20068;-73
2023/03/05 03:22:38;;;;;;;8.10;2.60;;;2.50;99.90;;;;;;4985473;28;20616;-73
2023/03/05 03:25:05;;;;;;;6.05;3.35;;;2.50;99.90;;;;;;5003896;28;20062;-73
2023/03/05 03:27:30;;;;;;;4.00;2.65;;;2.50;99.90;;;;;;4982836;28;20091;-73
2023/03/05 03:30:01;;;;;;;6.20;2.92;;;2.50;99.90;;;;;;4987393;28;20061;-73
2023/03/05 03:32:27;;;;;;;11.15;3.25;;;2.60;99.90;;;;;;4987893;28;20101;-73
2023/03/05 03:34:53;;;;;;;8.73;3.53;;;2.60;99.90;;;;;;5005661;28;20096;-73
2023/03/05 03:37:28;;;;;;;7.55;2.35;;;2.60;99.90;;;;;;4986130;28;20041;-73
2023/03/05 03:39:54;;;;;;;12.20;3.03;;;2.60;99.90;;;;;;4986283;28;20128;-73
2023/03/05 03:42:21;;;;;;;5.50;2.22;;;2.60;99.90;;;;;;4986790;28;20121;-73
2023/03/05 03:44:47;;;;;;;9.45;3.28;;;2.60;99.90;;;;;;4982866;28;20049;-73
2023/03/05 03:47:13;;;;;;;9.52;2.92;;;2.60;99.90;;;;;;4969226;28;20042;-73
2023/03/05 03:49:39;;;;;;;12.82;3.70;;;2.60;99.90;;;;;;4983915;28;20045;-73
2023/03/05 03:52:05;;;;;;;6.65;3.17;;;2.60;99.90;;;;;;4985112;28;20049;-73
2023/03/05 03:54:31;;;;;;;12.60;3.55;;;2.60;99.90;;;;;;4985305;28;20087;-73
2023/03/05 03:56:57;;;;;;;4.65;2.85;;;2.70;99.90;;;;;;4984845;28;20054;-73
2023/03/05 03:59:23;;;;;;;12.07;3.05;;;2.70;99.90;;;;;;4984353;28;20048;-73
2023/03/05 04:01:49;;;;;;;5.13;3.00;;;2.70;99.90;;;;;;4985159;28;20044;-73
2023/03/05 04:04:15;;;;;;;9.73;3.63;;;2.60;99.90;;;;;;4987638;28;20061;-73
2023/03/05 04:06:42;;;;;;;9.35;3.10;;;2.60;99.90;;;;;;4985157;28;20050;-73
2023/03/05 04:09:08;;;;;;;4.75;2.53;;;2.60;99.90;;;;;;4980332;28;20061;-73
2023/03/05 04:11:35;;;;;;;11.75;3.17;;;2.60;99.90;;;;;;4985283;28;20042;-73
2023/03/05 04:14:00;;;;;;;8.20;2.72;;;2.60;99.90;;;;;;4990575;28;20058;-74
2023/03/05 04:16:26;;;;;;;8.93;3.08;;;2.60;99.90;;;;;;4990736;28;20052;-74
2023/03/05 04:18:52;;;;;;;9.27;3.58;;;2.60;99.90;;;;;;4988896;28;20180;-74
2023/03/05 04:21:18;;;;;;;6.25;2.72;;;2.60;99.90;;;;;;4985226;28;20491;-74
2023/03/05 04:23:43;;;;;;;5.30;2.80;;;2.60;99.90;;;;;;4984714;28;20784;-74
2023/03/05 04:26:09;;;;;;;4.60;2.90;;;2.60;99.90;;;;;;4987384;28;20054;-74
2023/03/05 04:28:35;;;;;;;10.13;2.80;;;2.60;99.90;;;;;;4985504;28;20054;-74
2023/03/05 04:31:02;;;;;;;9.52;3.17;;;2.50;99.90;;;;;;4987628;28;20088;-74
2023/03/05 04:33:27;;;;;;;4.80;2.90;;;2.50;99.90;;;;;;4988719;28;20077;-74
2023/03/05 04:35:53;;;;;;;6.05;3.35;;;2.50;99.90;;;;;;4989138;28;20483;-72
2023/03/05 04:38:18;;;;;;;11.00;3.22;;;2.50;99.90;;;;;;4986542;28;20498;-73
2023/03/05 04:40:45;;;;;;;9.57;2.83;;;2.50;99.90;;;;;;4986032;28;20392;-72
2023/03/05 04:43:11;;;;;;;9.07;3.20;;;2.40;99.90;;;;;;4986407;28;20041;-73
2023/03/05 04:45:41;;;;;;;7.43;2.65;;;2.40;99.90;;;;;;4988200;28;20895;-73
2023/03/05 04:48:08;;;;;;;6.95;2.75;;;2.40;99.90;;;;;;4988519;28;20132;-72
2023/03/05 04:50:34;;;;;;;9.85;2.70;;;2.50;99.90;;;;;;4986078;28;20042;-73
2023/03/05 04:53:00;;;;;;;5.82;3.47;;;2.50;99.90;;;;;;4980767;28;20045;-73
2023/03/05 04:55:26;;;;;;;8.88;2.90;;;2.50;99.90;;;;;;4999422;28;20049;-73
2023/03/05 04:57:52;;;;;;;5.93;2.63;;;2.50;99.90;;;;;;4998745;28;20046;-73
2023/03/05 05:00:18;;;;;;;6.80;3.17;;;2.60;99.90;;;;;;4982465;28;20062;-73
2023/03/05 05:02:46;;;;;;;8.52;3.58;;;2.60;99.90;;;;;;4986153;28;20037;-73
2023/03/05 05:05:15;;;;;;;9.45;3.03;;;2.60;99.90;;;;;;4985705;28;20532;-73
2023/03/05 05:07:41;;;;;;;8.50;3.63;;;2.60;99.90;;;;;;4983828;28;20046;-73
2023/03/05 05:10:08;;;;;;;8.80;2.83;;;2.60;99.90;;;;;;4982449;28;20120;-73
2023/03/05 05:12:34;;;;;;;5.63;2.75;;;2.60;99.90;;;;;;5003531;28;20045;-73
2023/03/05 05:15:00;;;;;;;7.85;2.65;;;2.60;99.90;;;;;;4987288;28;20050;-73
2023/03/05 05:17:29;;;;;;;10.00;3.33;;;2.60;99.90;;;;;;4988148;28;20140;-74
2023/03/05 05:19:56;;;;;;;6.78;2.45;;;2.60;99.90;;;;;;4986355;28;20057;-74
2023/03/05 05:22:22;;;;;;;12.50;2.63;;;2.60;99.90;;;;;;4982673;28;20050;-74
2023/03/05 05:24:47;;;;;;;4.25;2.38;;;2.60;99.90;;;;;;4983064;28;20050;-74
2023/03/05 05:27:13;;;;;;;11.25;3.22;;;2.60;99.90;;;;;;4977446;28;21269;-73
2023/03/05 05:29:39;;;;;;;5.45;2.30;;;2.60;99.90;;;;;;4981061;28;20101;-73
2023/03/05 05:32:05;;;;;;;4.78;2.53;;;2.60;99.90;;;;;;4987645;28;20579;-73
2023/03/05 05:34:31;;;;;;;5.25;2.90;;;2.60;99.90;;;;;;4986054;28;20496;-73
2023/03/05 05:36:56;;;;;;;6.78;2.75;;;2.60;99.90;;;;;;4963615;28;20044;-73
2023/03/05 05:39:22;;;;;;;9.23;2.60;;;2.60;99.90;;;;;;4981842;28;20054;-74
2023/03/05 05:41:51;;;;;;;9.23;3.33;;;2.60;99.90;;;;;;4981722;28;20384;-73
2023/03/05 05:44:18;;;;;;;11.25;2.83;;;2.60;99.90;;;;;;4986040;28;20049;-73
2023/03/05 05:46:44;;;;;;;4.28;2.42;;;2.60;99.90;;;;;;4982538;28;20042;-74
2023/03/05 05:49:11;;;;;;;3.67;2.38;;;2.60;99.90;;;;;;4987160;28;20116;-74
2023/03/05 05:51:38;;;;;;;3.47;2.20;;;2.60;99.90;;;;;;4988841;28;20060;-74
2023/03/05 05:54:03;;;;;;;3.20;1.60;;;2.50;99.90;;;;;;4986305;28;20042;-74
2023/03/05 05:56:29;;;;;;;5.07;2.00;;;2.50;99.90;;;;;;4987442;28;20042;-74
2023/03/05 05:58:56;;;;;;;6.43;2.35;;;2.50;99.90;;;;;;4985838;28;20046;-74
2023/03/05 06:01:25;;;;;;;6.28;2.33;;;2.50;99.90;;;;;;4989470;28;20047;-74
2023/03/05 06:03:51;;;;;;;3.53;1.70;;;2.50;99.90;;;;;;4981167;28;20050;-74
2023/03/05 06:06:20;;;;;;;5.38;1.40;;;2.50;99.90;;;;;;4990169;28;20394;-74
2023/03/05 06:08:46;;;;;;;4.38;1.48;;;2.50;99.90;;;;;;4984482;28;20335;-74
2023/03/05 06:11:13;;;;;;;3.97;2.13;;;2.50;99.90;;;;;;4982947;28;20082;-74
2023/03/05 06:13:39;;;;;;;4.43;1.73;;;2.50;99.90;;;;;;4985530;28;20062;-74
2023/03/05 06:16:09;;;;;;;4.28;1.85;;;2.50;99.90;;;;;;4983597;28;20055;-74
2023/03/05 06:18:35;;;;;;;2.97;2.05;;;2.50;99.90;;;;;;4980840;28;20073;-74
2023/03/05 06:21:03;;;;;;;3.08;1.15;;;2.50;99.90;;;;;;4981823;28;20081;-74
2023/03/05 06:23:29;;;;;;;3.13;1.23;;;2.50;99.90;;;;;;4985506;28;20058;-73
2023/03/05 06:25:59;;;;;;;3.80;1.85;;;2.50;99.90;;;;;;4988771;28;20054;-74
2023/03/05 06:28:25;;;;;;;7.85;2.30;;;2.50;99.90;;;;;;4980811;28;20125;-74
2023/03/05 06:30:59;;;;;;;4.30;1.58;;;2.50;99.90;;;;;;4983342;28;20124;-74
2023/03/05 06:33:25;;;;;;;7.60;2.28;;;2.50;99.90;;;;;;4985804;28;20074;-74
2023/03/05 06:35:51;;;;;;;2.75;1.55;;;2.50;99.90;;;;;;4986417;28;20479;-74
2023/03/05 06:38:17;;;;;;;3.60;1.63;;;2.50;99.90;;;;;;4988764;28;20074;-74
2023/03/05 06:40:42;;;;;;;7.93;1.92;;;2.50;99.90;;;;;;4983833;28;20062;-74
2023/03/05 06:43:08;;;;;;;8.18;2.05;;;2.50;99.90;;;;;;4985193;28;20050;-74
2023/03/05 06:45:33;;;;;;;6.82;2.42;;;2.50;99.90;;;;;;4984732;28;20042;-74
2023/03/05 06:47:59;;;;;;;3.10;1.77;;;2.60;99.90;;;;;;4980837;28;20046;-74
2023/03/05 06:50:25;;;;;;;9.75;1.92;;;2.60;99.90;;;;;;4985170;28;20069;-74
2023/03/05 06:52:51;;;;;;;5.80;2.10;;;2.60;99.90;;;;;;4986236;28;20126;-74
2023/03/05 06:55:18;;;;;;;4.75;1.90;;;2.60;99.90;;;;;;4983641;28;20074;-74
2023/03/05 06:57:44;;;;;;;8.85;2.10;;;2.60;99.90;;;;;;4982641;28;20055;-74
2023/03/05 07:00:10;;;;;;;4.20;1.83;;;2.60;99.90;;;;;;4986211;28;20050;-74
2023/03/05 07:02:37;;;;;;;11.52;2.50;;;2.70;99.90;;;;;;4983354;28;20503;-74
2023/03/05 07:05:04;;;;;;;7.07;2.03;;;2.70;99.90;;;;;;4981389;28;20050;-74
2023/03/05 07:07:30;;;;;;;4.32;1.90;;;2.80;99.90;;;;;;4998453;28;20046;-73
2023/03/05 07:09:56;;;;;;;6.10;2.58;;;2.90;99.90;;;;;;4979695;28;20057;-74
2023/03/05 07:12:22;;;;;;;5.10;2.30;;;2.90;99.90;;;;;;4982814;28;20054;-74
2023/03/05 07:14:47;;;;;;;9.23;2.55;;;3.00;99.90;;;;;;4982424;28;20070;-74
2023/03/05 07:17:14;;;;;;;7.75;2.13;;;3.00;99.90;;;;;;4986289;28;20400;-74
2023/03/05 07:19:42;;;;;;;7.75;2.33;;;3.00;99.90;;;;;;4981957;28;20050;-74
2023/03/05 07:22:08;;;;;;;6.57;2.47;;;3.10;99.90;;;;;;4984487;28;20081;-74
2023/03/05 07:24:35;;;;;;;5.72;2.92;;;3.10;99.90;;;;;;4983154;28;20476;-74
2023/03/05 07:27:00;;;;;;;4.35;2.45;;;3.10;99.90;;;;;;4983605;28;20451;-74
2023/03/05 07:29:27;;;;;;;3.58;1.65;;;3.20;99.90;;;;;;4982792;28;20097;-74
2023/03/05 07:31:54;;;;;;;8.60;2.17;;;3.30;99.90;;;;;;4983793;28;20491;-74
2023/03/05 07:34:20;;;;;;;3.78;2.22;;;3.40;99.90;;;;;;4988541;28;20148;-74
2023/03/05 07:36:49;;;;;;;7.88;2.53;;;3.50;99.90;;;;;;4985270;28;20096;-74
2023/03/05 07:39:18;;;;;;;7.88;2.17;;;3.60;99.90;;;;;;4986366;28;20721;-74
2023/03/05 07:41:49;;;;;;;8.65;3.55;;;3.60;99.90;;;;;;4981742;28;20181;-74
2023/03/05 07:44:16;;;;;;;4.88;1.85;;;3.60;99.90;;;;;;4984198;28;20538;-74
2023/03/05 07:46:42;;;;;;;11.35;3.15;;;3.70;99.90;;;;;;4984691;28;20177;-74
2023/03/05 07:49:08;;;;;;;4.95;2.22;;;3.80;99.90;;;;;;4985911;28;20506;-74
2023/03/05 07:51:34;;;;;;;8.90;3.20;;;3.90;99.90;;;;;;4983053;28;20085;-73
2023/03/05 07:54:00;;;;;;;9.77;2.70;;;4.00;99.90;;;;;;4980914;28;20054;-73
2023/03/05 07:56:33;;;;;;;6.68;2.80;;;4.00;99.90;;;;;;4982849;28;20585;-73
2023/03/05 07:59:03;;;;;;;6.80;3.05;;;4.10;99.90;;;;;;4981646;28;20104;-73
2023/03/05 08:01:30;;;;;;;6.75;2.97;;;4.10;99.90;;;;;;4981492;28;20141;-73
2023/03/05 08:03:57;;;;;;;5.65;2.42;;;4.20;99.90;;;;;;4980079;28;20046;-74
2023/03/05 08:06:23;;;;;;;6.90;2.47;;;4.30;99.90;;;;;;4980394;28;20047;-73
2023/03/05 08:08:48;;;;;;;8.02;3.47;;;4.30;99.90;;;;;;4982488;28;20061;-73
2023/03/05 08:11:15;;;;;;;4.75;2.45;;;4.40;99.90;;;;;;4980445;28;20042;-73
2023/03/05 08:13:42;;;;;;;8.07;3.95;;;4.40;99.90;;;;;;4979052;28;20081;-73
2023/03/05 08:16:12;;;;;;;11.90;2.95;;;4.50;99.90;;;;;;4978411;28;20061;-73
2023/03/05 08:18:37;;;;;;;7.43;3.72;;;4.50;99.90;;;;;;4984302;28;20086;-73
2023/03/05 08:21:04;;;;;;;7.80;2.83;;;4.50;99.90;;;;;;4980972;28;20050;-73
2023/03/05 08:23:30;;;;;;;11.02;2.75;;;4.60;99.90;;;;;;4964381;28;20743;-73
2023/03/05 08:25:55;;;;;;;8.85;2.95;;;4.60;99.90;;;;;;4980664;28;20062;-73
2023/03/05 08:28:21;;;;;;;6.47;2.17;;;4.60;99.90;;;;;;4982348;28;20181;-74
2023/03/05 08:30:48;;;;;;;6.90;2.83;;;4.60;99.90;;;;;;4980545;28;20050;-73
2023/03/05 08:33:16;;;;;;;9.57;2.58;;;4.60;99.90;;;;;;4983709;28;23361;-73
2023/03/05 08:35:42;;;;;;;10.68;3.58;;;4.70;99.90;;;;;;4979473;28;20050;-73
2023/03/05 08:38:07;;;;;;;5.13;2.55;;;4.80;99.90;;;;;;4983270;28;20058;-73
2023/03/05 08:40:33;;;;;;;9.68;2.67;;;4.80;99.90;;;;;;4978276;28;20138;-73
2023/03/05 08:42:59;;;;;;;5.90;3.00;;;4.90;99.90;;;;;;4983103;28;20599;-73
2023/03/05 08:45:27;;;;;;;11.32;3.30;;;5.00;99.90;;;;;;4979139;28;20070;-72
2023/03/05 08:47:55;;;;;;;11.27;2.33;;;5.00;99.90;;;;;;4981979;28;20039;-72
2023/03/05 08:50:22;;;;;;;10.15;2.25;;;5.10;99.90;;;;;;4980782;28;20058;-73
2023/03/05 08:52:48;;;;;;;6.13;2.38;;;5.10;99.90;;;;;;4982477;28;20096;-73
2023/03/05 08:55:15;;;;;;;9.18;2.80;;;5.20;99.90;;;;;;4983150;28;20042;-72
2023/03/05 08:57:42;;;;;;;6.68;2.55;;;5.20;99.90;;;;;;4982995;28;20097;-73
2023/03/05 09:00:11;;;;;;;7.10;2.50;;;5.20;99.90;;;;;;4983477;28;20400;-72
2023/03/05 09:02:37;;;;;;;7.10;2.47;;;5.20;99.90;;;;;;4981596;28;20050;-72
2023/03/05 09:05:03;;;;;;;7.32;2.47;;;5.10;99.90;;;;;;4984910;28;20065;-72
2023/03/05 09:07:29;;;;;;;18.77;3.30;;;5.20;99.90;;;;;;4983367;28;20061;-73
2023/03/05 09:09:54;;;;;;;7.13;2.05;;;5.20;99.90;;;;;;4984990;28;20050;-72
2023/03/05 09:12:20;;;;;;;6.82;2.17;;;5.30;99.90;;;;;;4984878;28;20054;-72
2023/03/05 09:14:45;;;;;;;4.43;1.85;;;5.30;99.90;;;;;;4984128;28;20415;-72
2023/03/05 09:17:11;;;;;;;7.40;2.55;;;5.40;99.90;;;;;;4983255;28;20519;-72
2023/03/05 09:19:37;;;;;;;8.70;2.42;;;5.60;99.90;;;;;;4984546;28;21962;-72
2023/03/05 09:22:03;;;;;;;5.97;2.67;;;5.70;99.90;;;;;;4991892;28;20465;-72
2023/03/05 09:24:28;;;;;;;7.60;2.40;;;5.80;99.90;;;;;;4986175;28;20461;-73
2023/03/05 09:26:58;;;;;;;6.60;3.08;;;5.90;99.90;;;;;;4987108;28;20128;-72
2023/03/05 09:29:26;;;;;;;9.85;2.55;;;6.00;99.90;;;;;;5003763;28;20064;-72
2023/03/05 09:31:52;;;;;;;7.37;2.50;;;6.10;99.90;;;;;;5004473;28;20081;-72
2023/03/05 09:34:18;;;;;;;15.75;2.83;;;6.30;99.90;;;;;;4989177;28;20053;-72
2023/03/05 09:36:44;;;;;;;6.68;2.15;;;6.40;99.90;;;;;;4985580;28;20045;-73
2023/03/05 09:39:09;;;;;;;7.65;2.30;;;6.50;99.90;;;;;;4986528;28;20465;-73
2023/03/05 09:42:03;;;;;;;11.90;2.50;;;6.70;99.90;;;;;;5003265;28;20587;-72
2023/03/05 09:44:56;;;;;;;4.50;2.08;;;6.90;99.90;;;;;;5004597;28;20514;-72
2023/03/05 09:47:56;;;;;;;16.48;3.53;;;7.10;99.90;;;;;;4968716;28;20053;-72
2023/03/05 09:50:33;;;;;;;12.98;2.67;;;7.30;99.90;;;;;;4987576;28;20152;-72
2023/03/05 09:53:17;;;;;;;7.55;2.25;;;7.40;99.90;;;;;;4986432;28;20033;-72
2023/03/05 09:55:47;;;;;;;6.85;2.10;;;7.50;99.90;;;;;;4987991;28;20056;-72
2023/03/05 09:58:47;;;;;;;9.50;2.92;;;7.70;99.90;;;;;;4987114;28;20515;-72
2023/03/05 10:01:25;;;;;;;6.47;2.13;;;7.80;99.90;;;;;;4956920;28;20081;-72
2023/03/05 10:04:12;;;;;;;6.35;2.10;;;7.90;99.90;;;;;;4986365;28;20184;-71
2023/03/05 10:06:59;;;;;;;8.05;2.47;;;8.00;99.90;;;;;;4987125;28;20133;-72
2023/03/05 10:09:24;;;;;;;6.55;1.65;;;8.00;99.90;;;;;;5003472;28;20069;-72
2023/03/05 10:11:55;;;;;;;7.28;2.13;;;8.10;99.90;;;;;;4985396;28;20045;-72
2023/03/05 10:14:21;;;;;;;4.63;1.58;;;8.10;99.90;;;;;;4985963;28;20050;-72
2023/03/05 10:16:55;;;;;;;8.90;1.75;;;8.10;99.90;;;;;;4989101;28;20057;-71
2023/03/05 10:19:49;;;;;;;12.02;2.20;;;8.00;99.90;;;;;;4987721;28;20842;-71
2023/03/05 10:22:18;;;;;;;5.25;1.83;;;7.90;99.90;;;;;;5003763;28;20423;-72
2023/03/05 10:25:03;;;;;;;3.35;1.60;;;7.70;99.90;;;;;;4985994;28;20164;-72
2023/03/05 10:27:54;;;;;;;2.33;1.00;;;7.50;99.90;;;;;;5004463;28;20069;-73
2023/03/05 10:30:38;;;;;;;5.93;1.33;;;7.30;99.90;;;;;;4984689;28;20050;-73
2023/03/05 10:33:39;;;;;;;6.60;1.85;;;7.20;99.90;;;;;;4986323;28;20061;-73
2023/03/05 10:36:30;;;;;;;2.03;1.17;;;7.10;99.90;;;;;;4929626;28;20064;-74
2023/03/05 10:39:32;;;;;;;3.15;1.23;;;7.00;99.90;;;;;;5002783;28;20054;-74
2023/03/05 10:42:20;;;;;;;3.42;1.00;;;6.90;99.90;;;;;;4987198;28;20127;-73
2023/03/05 10:44:47;;;;;;;;;;;6.90;99.90;;;;;;4969923;28;20070;-74
2023/03/05 10:47:26;;;;;;;0.68;0.60;;;6.80;99.90;;;;;;4988434;28;19925;-73
2023/03/05 10:49:57;;;;;;;1.13;0.50;;;6.80;99.90;;;;;;4986559;28;20093;-73
2023/03/05 10:52:29;;;;;;;1.25;0.88;;;6.90;99.90;;;;;;4987939;28;20077;-73
2023/03/05 10:54:54;;;;;;;1.30;0.73;;;6.90;99.90;;;;;;4998872;28;20050;-73
2023/03/05 10:57:26;;;;;;;2.08;0.55;;;6.90;99.90;;;;;;4989832;28;20049;-73
2023/03/05 11:00:15;;;;;;;1.70;1.10;;;7.00;99.90;;;;;;4987015;28;20057;-74
2023/03/05 11:03:05;;;;;;;2.17;1.80;;;7.10;99.90;;;;;;4987969;28;20049;-73
2023/03/05 11:06:01;;;;;;;2.83;1.50;;;7.10;99.90;;;;;;4987448;28;20104;-74
2023/03/05 11:08:35;;;;;;;3.30;1.45;;;7.00;99.90;;;;;;4975603;28;20058;-74
2023/03/05 11:11:10;;;;;;;4.22;1.70;;;7.00;99.90;;;;;;4986803;28;20510;-73
2023/03/05 11:13:46;;;;;;;5.47;1.92;;;7.00;99.90;;;;;;4990275;28;20847;-73
2023/03/05 11:16:22;;;;;;;4.03;1.20;;;7.00;99.90;;;;;;4985337;28;20054;-73
2023/03/05 11:18:49;;;;;;;5.15;2.00;;;7.00;99.90;;;;;;5001332;28;20056;-72
2023/03/05 11:21:28;;;;;;;2.90;1.50;;;7.00;99.90;;;;;;4999399;28;20073;-73
2023/03/05 11:24:04;;;;;;;2.42;1.30;;;7.10;99.90;;;;;;4987792;28;20074;-73
2023/03/05 11:26:29;;;;;;;3.67;2.13;;;7.20;99.90;;;;;;4986327;28;20438;-73
2023/03/05 11:28:59;;;;;;;5.32;1.65;;;7.20;99.90;;;;;;4989719;28;20103;-73
2023/03/05 11:31:31;;;;;;;7.13;2.00;;;7.40;99.90;;;;;;4989395;28;20186;-72
2023/03/05 11:34:24;;;;;;;4.03;1.75;;;7.60;99.90;;;;;;4988035;28;20137;-73
2023/03/05 11:36:53;;;;;;;6.05;1.50;;;7.80;99.90;;;;;;4985576;28;20064;-72
2023/03/05 11:39:21;;;;;;;6.15;2.28;;;8.10;99.90;;;;;;4971658;28;20042;-72
2023/03/05 11:42:09;;;;;;;9.90;1.73;;;8.40;99.90;;;;;;4986716;28;20057;-72
2023/03/05 11:44:50;;;;;;;9.88;2.35;;;8.60;99.90;;;;;;4998795;28;20084;-72
2023/03/05 11:47:31;;;;;;;9.68;2.22;;;8.90;99.90;;;;;;4984957;28;20750;-73
2023/03/05 11:50:11;;;;;;;6.03;2.03;;;9.20;99.90;;;;;;4981464;28;20058;-72
2023/03/05 11:52:51;;;;;;;6.22;2.00;;;9.40;99.90;;;;;;4971270;28;20049;-73
2023/03/05 11:55:25;;;;;;;9.25;2.72;;;9.50;99.90;;;;;;4985477;28;20046;-73
2023/03/05 11:58:05;;;;;;;5.82;2.42;;;9.60;99.90;;;;;;4986196;28;20116;-72
2023/03/05 12:00:34;;;;;;;2.78;1.95;;;9.80;99.90;;;;;;5002773;28;20045;-74
2023/03/05 12:03:06;;;;;;;3.65;2.05;;;9.80;99.90;;;;;;4988904;28;20049;-74
2023/03/05 12:05:34;;;;;;;7.65;2.00;;;9.80;99.90;;;;;;4989133;28;20060;-74
2023/03/05 12:08:01;;;;;;;;;;;9.80;99.90;;;;;;4972815;28;20085;-74
2023/03/05 12:10:27;;;;;;;3.97;1.70;;;9.80;99.90;;;;;;4989674;28;20024;-74
2023/03/05 12:13:24;;;;;;;3.78;1.80;;;9.90;99.90;;;;;;4990828;28;20125;-74
2023/03/05 12:16:26;;;;;;;9.07;1.33;;;9.80;99.90;;;;;;4992087;28;20058;-74
2023/03/05 12:19:13;;;;;;;10.05;2.00;;;9.60;99.90;;;;;;4982515;28;20041;-74
2023/03/05 12:21:40;;;;;;;4.30;1.58;;;9.40;99.90;;;;;;4993363;28;20053;-74
2023/03/05 12:24:24;;;;;;;3.37;1.20;;;9.40;99.90;;;;;;5008363;28;20483;-74
2023/03/05 12:27:02;;;;;;;9.05;1.50;;;9.40;99.90;;;;;;5003549;28;20332;-73
2023/03/05 12:29:43;;;;;;;2.25;1.48;;;9.40;99.90;;;;;;4981548;28;20049;-74
2023/03/05 12:32:21;;;;;;;5.13;1.60;;;9.40;99.90;;;;;;5003605;28;20776;-74
2023/03/05 12:35:00;;;;;;;3.40;1.48;;;9.50;99.90;;;;;;4990638;28;20917;-73
2023/03/05 12:37:26;;;;;;;2.65;1.30;;;9.50;99.90;;;;;;4990628;28;20089;-74
2023/03/05 12:40:19;;;;;;;2.50;1.02;;;9.50;99.90;;;;;;4989631;28;20124;-73
2023/03/05 12:42:50;;;;;;;3.05;1.42;;;9.50;99.90;;;;;;5005049;28;20042;-74
2023/03/05 12:45:15;;;;;;;9.88;2.10;;;9.40;99.90;;;;;;4998068;28;20046;-74
2023/03/05 12:47:45;;;;;;;3.33;1.48;;;9.30;99.90;;;;;;4989578;28;20054;-73
2023/03/05 12:50:26;;;;;;;4.70;1.58;;;9.20;99.90;;;;;;4988510;28;20084;-73
2023/03/05 12:53:14;;;;;;;1.83;1.05;;;9.20;99.90;;;;;;4989987;28;20042;-73
2023/03/05 12:55:44;;;;;;;4.93;1.50;;;9.00;99.90;;;;;;5000815;28;20072;-73
2023/03/05 12:58:34;;;;;;;3.80;1.60;;;9.00;99.90;;;;;;4983026;28;20062;-74
2023/03/05 13:01:13;;;;;;;8.00;1.70;;;8.90;99.90;;;;;;4990228;28;20380;-73
2023/03/05 13:03:56;;;;;;;6.93;2.22;;;8.90;99.90;;;;;;4961761;28;20058;-73
2023/03/05 13:06:28;;;;;;;2.63;1.58;;;9.00;99.90;;;;;;4982469;28;20100;-73
2023/03/05 13:09:04;;;;;;;6.60;1.95;;;8.90;99.90;;;;;;4997341;28;20046;-73